Time;durP1;ratioP1;P1;durP2;ratioP2;P2;SDS_P1;SDS_P2;PMS_P1;PMS_P2;Temp;Humidity;BMP_temperature;BMP_pressure;BME280_temperature;BME280_humidity;BME280_pressure;Samples;Min_cycle;Max_cycle;Signal;HPM_P1;HPM_P2
2022/01/13 00:01:46;;;;;;;5.35;3.53;;;;;;;-15.09;66.14;99919.25;4720367;30;20051;-69
2022/01/13 00:04:13;;;;;;;10.18;6.00;;;;;;;-15.22;67.03;99919.66;4749920;30;20050;-68
2022/01/13 00:06:39;;;;;;;16.98;6.03;;;;;;;-15.44;65.25;99901.81;4734833;30;20066;-67
2022/01/13 00:09:05;;;;;;;11.70;4.97;;;;;;;-15.41;65.78;99904.50;4749140;30;20143;-68
2022/01/13 00:11:30;;;;;;;11.77;5.97;;;;;;;-15.36;66.04;99908.09;4750685;30;20054;-68
2022/01/13 00:14:24;;;;;;;19.55;7.60;;;;;;;-15.45;65.60;99913.72;4750853;30;20601;-68
2022/01/13 00:19:49;;;;;;;15.45;7.18;;;;;;;-15.64;63.88;99913.06;4763135;29;20666;-68
2022/01/13 00:22:38;;;;;;;13.52;6.82;;;;;;;-15.70;64.97;99900.06;4787153;29;20125;-67
2022/01/13 00:25:04;;;;;;;10.68;4.75;;;;;;;-15.67;65.05;99895.91;4785386;29;20069;-70
2022/01/13 00:27:30;;;;;;;13.82;5.97;;;;;;;-15.71;65.52;99899.19;4787368;29;20213;-66
2022/01/13 00:29:58;;;;;;;14.93;6.05;;;;;;;-15.66;65.49;99891.69;4786917;29;20114;-68
2022/01/13 00:32:26;;;;;;;14.65;7.10;;;;;;;-15.60;66.60;99889.38;4786253;29;20060;-68
2022/01/13 00:34:51;;;;;;;8.32;4.20;;;;;;;-15.51;66.87;99880.31;4787067;29;20114;-65
2022/01/13 00:37:16;;;;;;;7.20;3.85;;;;;;;-15.45;66.75;99871.97;4788648;29;20042;-66
2022/01/13 00:39:41;;;;;;;13.60;6.43;;;;;;;-15.41;66.26;99866.16;4790633;29;20070;-70
2022/01/13 00:42:06;;;;;;;10.80;5.47;;;;;;;-15.35;66.96;99850.19;4788494;29;20109;-69
2022/01/13 00:44:36;;;;;;;11.68;5.93;;;;;;;-15.54;64.41;99846.13;4788696;29;20162;-70
2022/01/13 00:47:01;;;;;;;8.57;5.28;;;;;;;-15.53;64.29;99853.81;4787288;29;20187;-69
2022/01/13 00:49:26;;;;;;;15.15;6.55;;;;;;;-15.73;63.78;99836.09;4788433;29;20045;-68
2022/01/13 00:51:51;;;;;;;10.85;4.68;;;;;;;-15.71;65.57;99826.81;4787493;29;20054;-71
2022/01/13 00:54:16;;;;;;;13.50;5.00;;;;;;;-15.62;66.11;99822.00;4788591;29;20046;-70
2022/01/13 00:56:41;;;;;;;4.90;3.60;;;;;;;-15.55;66.75;99811.19;4788253;29;20103;-70
2022/01/13 00:59:09;;;;;;;9.65;5.03;;;;;;;-15.57;65.45;99802.63;4788314;29;20095;-69
2022/01/13 01:01:36;;;;;;;17.67;8.35;;;;;;;-15.79;63.37;99797.53;4788055;29;20050;-68
2022/01/13 01:04:02;;;;;;;9.35;5.32;;;;;;;-15.76;64.62;99802.78;4787978;29;20042;-67
2022/01/13 01:06:26;;;;;;;9.45;5.03;;;;;;;-15.75;65.31;99805.38;4788057;29;20482;-69
2022/01/13 01:08:51;;;;;;;10.55;4.50;;;;;;;-15.70;66.43;99792.78;4788115;29;20570;-67
2022/01/13 01:11:16;;;;;;;17.20;5.88;;;;;;;-15.71;65.74;99789.38;4786399;29;20062;-71
2022/01/13 01:13:42;;;;;;;11.40;5.47;;;;;;;-15.63;66.74;99795.59;4787806;29;20077;-70
2022/01/13 01:16:10;;;;;;;11.52;5.82;;;;;;;-15.65;66.01;99776.78;4787828;29;20054;-66
2022/01/13 01:18:49;;;;;;;12.85;5.13;;;;;;;-15.56;66.55;99764.31;4786551;29;20098;-66
2022/01/13 01:21:36;;;;;;;10.27;4.45;;;;;;;-15.47;67.76;99763.75;4788229;29;20141;-66
2022/01/13 01:27:01;;;;;;;10.70;5.63;;;;;;;-15.32;68.11;99753.13;4719686;30;20142;-66
2022/01/13 01:31:55;;;;;;;9.23;5.60;;;;;;;-15.30;67.59;99739.59;4749662;30;20067;-66
2022/01/13 01:37:00;;;;;;;12.07;5.03;;;;;;;-15.32;67.42;99753.13;4750665;30;20054;-67
2022/01/13 01:39:25;;;;;;;10.70;6.72;;;;;;;-15.33;66.51;99746.28;4749966;30;20047;-69
2022/01/13 01:41:53;;;;;;;7.22;4.47;;;;;;;-15.31;67.62;99750.63;4749625;30;20112;-69
2022/01/13 01:44:29;;;;;;;11.18;5.40;;;;;;;-15.33;66.21;99759.06;4734106;30;20051;-69
2022/01/13 01:46:54;;;;;;;12.68;5.70;;;;;;;-15.41;66.33;99770.72;4749492;30;20054;-69
2022/01/13 01:49:25;;;;;;;9.35;4.97;;;;;;;-15.56;64.76;99758.34;4757655;29;20096;-69
2022/01/13 01:51:53;;;;;;;11.18;6.72;;;;;;;-15.68;64.76;99757.91;4751295;30;20046;-70
2022/01/13 01:54:18;;;;;;;14.15;5.57;;;;;;;-15.71;64.16;99756.16;4733371;30;20047;-67
2022/01/13 01:56:44;;;;;;;11.13;4.88;;;;;;;-15.66;65.56;99754.59;4735344;30;20058;-66
2022/01/13 01:59:13;;;;;;;15.20;8.02;;;;;;;-15.69;65.23;99738.34;4751732;30;20114;-67
2022/01/13 02:01:38;;;;;;;9.77;4.80;;;;;;;-15.70;64.68;99734.03;4760916;30;20047;-67
2022/01/13 02:04:03;;;;;;;16.80;5.57;;;;;;;-15.79;64.72;99738.81;4793729;29;20062;-67
2022/01/13 02:06:28;;;;;;;11.50;5.22;;;;;;;-15.80;64.94;99744.75;4798705;29;20045;-66
2022/01/13 02:08:53;;;;;;;9.32;5.88;;;;;;;-15.84;65.11;99744.66;4792368;29;20050;-66
2022/01/13 02:11:18;;;;;;;11.73;5.30;;;;;;;-15.86;65.51;99746.28;4788393;29;20094;-66
2022/01/13 02:13:49;;;;;;;11.88;5.70;;;;;;;-15.90;65.33;99746.09;4793627;29;20422;-66
2022/01/13 02:16:37;;;;;;;12.73;5.95;;;;;;;-15.97;66.10;99757.81;4799464;29;20042;-65
2022/01/13 02:19:01;;;;;;;13.45;6.88;;;;;;;-16.16;64.73;99755.41;4802445;29;20466;-66
2022/01/13 02:21:27;;;;;;;12.93;6.50;;;;;;;-16.12;64.70;99759.81;4799423;29;20439;-68
2022/01/13 02:23:54;;;;;;;13.68;6.15;;;;;;;-16.23;64.13;99763.66;4799354;29;20463;-68
2022/01/13 02:26:21;;;;;;;19.13;6.70;;;;;;;-16.30;64.15;99752.38;4793852;29;20095;-66
2022/01/13 02:28:46;;;;;;;14.93;6.55;;;;;;;-16.39;64.42;99753.72;4790287;29;20133;-66
2022/01/13 02:31:12;;;;;;;13.35;5.82;;;;;;;-16.42;64.16;99744.25;4790265;29;20137;-65
2022/01/13 02:33:37;;;;;;;10.07;4.75;;;;;;;-16.34;65.36;99749.63;4791755;29;20050;-67
2022/01/13 02:36:04;;;;;;;13.10;5.68;;;;;;;-16.28;66.50;99760.94;4791948;29;20088;-66
2022/01/13 02:38:28;;;;;;;16.73;7.63;;;;;;;-16.32;65.62;99758.22;4789191;29;20046;-67
2022/01/13 02:40:55;;;;;;;14.32;6.50;;;;;;;-16.36;65.37;99758.94;4791562;29;20116;-68
2022/01/13 02:43:20;;;;;;;17.80;8.18;;;;;;;-16.51;64.65;99756.69;4789110;29;20046;-67
2022/01/13 02:46:02;;;;;;;14.90;6.03;;;;;;;-16.60;64.48;99758.91;4794108;29;20058;-68
2022/01/13 02:48:30;;;;;;;15.40;5.53;;;;;;;-16.61;65.29;99759.72;4790359;29;20093;-65
2022/01/13 02:50:55;;;;;;;15.30;5.82;;;;;;;-16.58;66.32;99753.03;4790045;29;20053;-67
2022/01/13 02:53:20;;;;;;;12.38;5.88;;;;;;;-16.51;66.25;99736.28;4790194;29;20050;-66
2022/01/13 02:55:45;;;;;;;10.18;4.40;;;;;;;-16.47;66.79;99716.84;4773725;29;20038;-64
2022/01/13 02:58:14;;;;;;;8.68;4.63;;;;;;;-16.46;66.73;99710.91;4790089;29;20107;-68
2022/01/13 03:00:39;;;;;;;7.63;3.67;;;;;;;-16.37;67.23;99701.06;4788964;29;20110;-65
2022/01/13 03:03:04;;;;;;;8.63;3.78;;;;;;;-16.42;66.60;99688.13;4790121;29;20074;-66
2022/01/13 03:05:29;;;;;;;14.55;5.20;;;;;;;-16.52;66.83;99711.59;4789909;29;20084;-65
2022/01/13 03:07:54;;;;;;;13.25;6.97;;;;;;;-16.67;65.77;99723.78;4789787;29;20061;-66
2022/01/13 03:10:19;;;;;;;10.98;5.32;;;;;;;-16.87;65.80;99715.41;4789650;29;20054;-68
2022/01/13 03:12:45;;;;;;;11.95;5.70;;;;;;;-16.80;66.18;99701.19;4773651;29;20056;-69
2022/01/13 03:15:11;;;;;;;13.95;5.47;;;;;;;-16.67;66.87;99706.81;4789649;29;20052;-68
2022/01/13 03:17:36;;;;;;;11.85;5.18;;;;;;;-16.63;65.38;99707.81;4773686;29;20070;-68
2022/01/13 03:20:01;;;;;;;17.75;7.40;;;;;;;-16.81;64.17;99705.41;4789941;29;20046;-68
2022/01/13 03:22:25;;;;;;;11.82;5.45;;;;;;;-16.73;64.70;99706.59;4789684;29;20068;-67
2022/01/13 03:24:50;;;;;;;11.73;5.70;;;;;;;-16.66;64.45;99705.13;4789690;29;20521;-63
2022/01/13 03:27:20;;;;;;;12.10;5.60;;;;;;;-16.73;64.01;99692.97;4744095;29;20135;-66
2022/01/13 03:29:46;;;;;;;13.13;7.22;;;;;;;-17.04;63.46;99686.72;4789101;29;20050;-64
2022/01/13 03:32:11;;;;;;;14.55;6.38;;;;;;;-16.93;64.11;99674.41;4773640;29;20497;-63
2022/01/13 03:34:36;;;;;;;18.00;8.10;;;;;;;-17.18;63.65;99659.00;4790371;29;20825;-67
2022/01/13 03:37:01;;;;;;;13.68;6.18;;;;;;;-17.24;64.21;99651.09;4789813;29;20047;-67
2022/01/13 03:39:25;;;;;;;10.40;5.13;;;;;;;-17.02;65.69;99648.53;4788110;29;20488;-65
2022/01/13 03:41:50;;;;;;;19.08;7.78;;;;;;;-17.06;65.26;99636.53;4789480;29;20078;-64
2022/01/13 03:44:27;;;;;;;13.20;5.32;;;;;;;-17.04;65.41;99629.81;4789370;29;20073;-65
2022/01/13 03:46:52;;;;;;;7.82;4.50;;;;;;;-16.99;65.99;99626.59;4789608;29;20062;-64
2022/01/13 03:49:17;;;;;;;8.00;4.60;;;;;;;-16.95;67.25;99625.03;4773383;29;20114;-66
2022/01/13 03:52:14;;;;;;;16.05;5.18;;;;;;;-16.88;66.86;99627.00;4773183;29;20138;-66
2022/01/13 03:54:39;;;;;;;11.98;5.72;;;;;;;-16.97;66.44;99617.34;4732057;30;20480;-65
2022/01/13 03:57:30;;;;;;;13.85;4.72;;;;;;;-16.88;67.58;99610.81;4732002;30;20059;-65
2022/01/13 04:00:16;;;;;;;12.80;6.90;;;;;;;-16.96;67.91;99601.22;4696315;30;20064;-64
2022/01/13 04:02:41;;;;;;;15.07;4.07;;;;;;;-16.89;68.24;99611.63;4697110;30;21501;-66
2022/01/13 04:05:06;;;;;;;10.32;4.40;;;;;;;-16.95;68.09;99605.50;4696896;30;20440;-64
2022/01/13 04:07:31;;;;;;;6.95;3.42;;;;;;;-16.94;68.14;99601.28;4673681;30;20052;-65
2022/01/13 04:09:55;;;;;;;10.48;6.45;;;;;;;-16.90;68.27;99585.28;4674629;30;20051;-66
2022/01/13 04:12:22;;;;;;;10.45;5.13;;;;;;;-16.85;68.24;99580.34;4687486;30;20049;-65
2022/01/13 04:14:52;;;;;;;18.88;7.00;;;;;;;-17.08;67.33;99582.94;4688118;30;20045;-65
2022/01/13 04:17:19;;;;;;;23.45;7.68;;;;;;;-17.20;67.12;99579.94;4674842;30;20057;-65
2022/01/13 11:19:30;;;;;;;11.00;4.10;;;;;;;-12.64;71.88;98378.72;5225480;24;20089;-67
2022/01/13 11:21:55;;;;;;;10.80;5.97;;;;;;;-12.65;72.16;98366.78;4808677;29;20052;-68
2022/01/13 11:24:22;;;;;;;11.32;5.50;;;;;;;-12.61;71.42;98370.16;4808232;29;20053;-66
2022/01/13 11:26:48;;;;;;;11.50;5.20;;;;;;;-12.53;71.85;98358.22;4791276;29;20038;-68
2022/01/13 11:29:16;;;;;;;7.53;3.83;;;;;;;-12.60;72.35;98354.78;4806908;29;20060;-67
2022/01/13 11:31:42;;;;;;;7.88;5.63;;;;;;;-12.63;72.00;98346.22;4790539;29;20046;-67
2022/01/13 11:34:09;;;;;;;9.18;5.35;;;;;;;-12.58;73.52;98311.16;4807488;29;20109;-67
2022/01/13 11:36:37;;;;;;;11.18;5.25;;;;;;;-12.65;73.42;98270.97;4790644;29;20045;-67
2022/01/13 11:39:08;;;;;;;14.95;5.60;;;;;;;-12.58;74.48;98263.25;4790563;29;20088;-69
2022/01/13 11:41:33;;;;;;;27.27;8.00;;;;;;;-12.69;76.14;98264.13;4806283;29;20092;-66
2022/01/13 11:44:17;;;;;;;9.45;4.30;;;;;;;-12.64;77.64;98275.25;4808268;29;20088;-65
2022/01/13 11:46:47;;;;;;;9.27;5.00;;;;;;;-12.54;77.99;98274.38;4808532;29;20045;-65
2022/01/13 11:49:20;;;;;;;10.40;3.97;;;;;;;-12.32;79.31;98263.19;4806956;29;20544;-65
2022/01/13 11:52:26;;;;;;;61.13;11.10;;;;;;;-12.35;79.25;98242.63;4791447;29;20074;-65
2022/01/13 11:54:45;;;;;;;10.27;4.25;;;;;;;-12.13;79.39;98215.16;4805727;29;20062;-64
2022/01/13 11:57:13;;;;;;;19.80;6.18;;;;;;;-12.27;79.33;98210.06;4807943;29;20050;-64
2022/01/13 12:00:00;;;;;;;15.38;6.53;;;;;;;-12.23;80.28;98218.63;4807821;29;20128;-65
2022/01/13 12:02:30;;;;;;;10.02;5.03;;;;;;;-12.03;80.65;98211.69;4807633;29;20569;-68
2022/01/13 12:05:17;;;;;;;12.73;5.93;;;;;;;-12.04;80.71;98197.13;4791259;29;20630;-67
2022/01/13 12:07:45;;;;;;;12.90;6.72;;;;;;;-12.11;81.02;98190.31;4807480;29;20077;-67
2022/01/13 12:10:37;;;;;;;9.32;5.22;;;;;;;-11.96;80.78;98173.97;4760947;29;20562;-66
2022/01/13 12:13:43;;;;;;;10.60;5.88;;;;;;;-11.85;81.65;98177.34;4792680;29;20049;-65
2022/01/13 12:16:11;;;;;;;8.18;5.28;;;;;;;-11.73;81.92;98154.91;4807773;29;20045;-66
2022/01/13 12:19:32;;;;;;;9.63;4.93;;;;;;;-11.64;81.68;98150.59;4790941;29;20066;-67
2022/01/13 12:22:00;;;;;;;12.75;4.45;;;;;;;-11.55;81.72;98147.94;4789398;29;20077;-67
2022/01/13 12:24:47;;;;;;;9.18;4.60;;;;;;;-11.50;81.22;98136.75;4807570;29;20462;-70
2022/01/13 12:27:39;;;;;;;11.02;4.90;;;;;;;-11.47;81.43;98102.44;4807441;29;20049;-70
2022/01/13 12:30:25;;;;;;;12.68;7.72;;;;;;;-11.37;81.79;98052.63;4801856;29;20508;-69
2022/01/13 12:33:29;;;;;;;;;;;;;;;-11.24;81.72;98058.50;4779005;29;20050;-69
2022/01/13 12:35:55;;;;;;;9.63;4.90;;;;;;;-11.32;82.04;98058.59;4790513;29;19920;-70
2022/01/13 12:38:22;;;;;;;12.13;5.13;;;;;;;-11.27;82.09;98076.53;4790795;29;20072;-69
2022/01/13 12:46:14;;;;;;;13.35;6.07;;;;;;;-11.10;81.81;98066.94;4793045;29;20050;-67
2022/01/13 12:48:42;;;;;;;9.10;4.80;;;;;;;-11.07;82.52;98056.63;4808483;29;20049;-66
2022/01/13 12:51:12;;;;;;;12.95;7.80;;;;;;;-11.15;81.39;98069.56;4775617;29;20046;-66
2022/01/13 12:53:40;;;;;;;13.30;6.38;;;;;;;-11.06;81.61;98053.19;4806918;29;20501;-70
2022/01/13 12:56:09;;;;;;;10.25;4.88;;;;;;;-11.01;81.66;98025.66;4807576;29;20072;-75
2022/01/13 12:58:40;;;;;;;14.88;6.72;;;;;;;-10.96;81.61;98008.47;4807965;29;20061;-72
2022/01/13 13:01:09;;;;;;;11.20;5.43;;;;;;;-10.86;81.43;97993.75;4762921;29;20529;-68
2022/01/13 13:03:35;;;;;;;23.45;7.30;;;;;;;-10.88;81.77;97996.34;4789234;29;20050;-70
2022/01/13 13:06:08;;;;;;;14.43;6.80;;;;;;;-10.80;81.85;97989.34;4789486;29;20068;-70
2022/01/13 13:08:39;;;;;;;13.90;7.60;;;;;;;-10.84;81.56;97984.28;4757331;29;20057;-72
2022/01/13 13:11:06;;;;;;;10.48;5.22;;;;;;;-10.78;81.25;97985.06;4789091;29;20046;-72
2022/01/13 13:13:37;;;;;;;15.95;7.47;;;;;;;-10.79;81.52;97985.91;4773107;29;20061;-72
2022/01/13 13:16:06;;;;;;;13.30;6.35;;;;;;;-10.81;80.99;97967.06;4772169;29;20050;-68
2022/01/13 13:18:35;;;;;;;15.65;6.88;;;;;;;-10.77;81.39;97994.47;4771499;29;20093;-73
2022/01/13 13:21:02;;;;;;;8.98;4.43;;;;;;;-10.65;81.77;97989.16;4788816;29;20094;-75
2022/01/13 13:23:31;;;;;;;12.18;6.05;;;;;;;-10.48;81.89;97995.78;4772706;29;20046;-71
2022/01/13 13:25:56;;;;;;;12.27;7.22;;;;;;;-10.60;81.35;98007.09;4788466;29;20137;-72
2022/01/13 13:28:25;;;;;;;13.95;6.57;;;;;;;-10.59;80.54;97982.19;4790257;29;20049;-69
2022/01/13 13:30:58;;;;;;;14.00;6.70;;;;;;;-10.49;81.78;97982.03;4756972;29;20373;-72
2022/01/13 13:33:44;;;;;;;12.77;5.57;;;;;;;-10.42;81.39;97978.53;4771867;29;20410;-68
2022/01/13 13:36:18;;;;;;;14.32;7.22;;;;;;;-10.33;81.79;97969.81;4788414;29;20065;-69
2022/01/13 13:38:59;;;;;;;13.32;6.72;;;;;;;-10.24;81.50;97973.94;4771952;29;20137;-68
2022/01/13 13:41:52;;;;;;;15.05;6.80;;;;;;;-10.23;81.47;97955.03;4788985;29;20053;-69
2022/01/13 13:44:23;;;;;;;11.50;5.53;;;;;;;-10.17;81.26;97945.47;4787882;29;20054;-69
2022/01/13 13:46:53;;;;;;;20.08;7.50;;;;;;;-10.10;81.33;97949.63;4788430;29;20046;-69
2022/01/13 13:49:22;;;;;;;11.35;5.80;;;;;;;-10.12;81.62;97933.34;4787698;29;20054;-69
2022/01/13 13:52:00;;;;;;;15.30;7.28;;;;;;;-9.85;81.34;97928.59;4787673;29;20103;-69
2022/01/13 13:54:35;;;;;;;10.57;5.70;;;;;;;-9.94;81.31;97919.31;4771420;29;20042;-69
2022/01/13 13:57:06;;;;;;;14.88;5.70;;;;;;;-9.90;81.65;97936.41;4787983;29;20558;-69
2022/01/13 13:59:36;;;;;;;10.60;5.00;;;;;;;-9.91;80.82;97932.97;4756095;29;20046;-68
2022/01/13 14:02:05;;;;;;;16.13;8.77;;;;;;;-9.99;80.40;97924.53;4787633;29;20572;-69
2022/01/13 14:04:31;;;;;;;11.90;6.22;;;;;;;-9.94;80.67;97919.31;4787577;29;20049;-69
2022/01/13 14:06:56;;;;;;;11.75;6.13;;;;;;;-9.82;80.42;97925.97;4787556;29;20130;-68
2022/01/13 14:09:35;;;;;;;14.88;6.82;;;;;;;-9.79;80.85;97920.75;4787195;29;20081;-69
2022/01/13 14:12:00;;;;;;;14.10;7.78;;;;;;;-9.93;80.81;97932.16;4786605;29;20046;-69
2022/01/13 14:14:25;;;;;;;14.27;6.80;;;;;;;-9.82;80.82;97941.44;4770920;29;20054;-69
2022/01/13 14:16:50;;;;;;;18.45;8.23;;;;;;;-9.78;80.18;97943.91;4787330;29;20120;-69
2022/01/13 14:19:15;;;;;;;14.00;5.50;;;;;;;-9.78;80.35;97930.19;4787044;29;20431;-68
2022/01/13 14:21:51;;;;;;;15.35;7.00;;;;;;;-9.66;79.66;97937.69;4755709;29;20480;-69
2022/01/13 14:24:37;;;;;;;14.73;8.00;;;;;;;-9.64;79.90;97936.78;4771595;29;20073;-69
2022/01/13 14:27:11;;;;;;;17.23;6.88;;;;;;;-9.57;80.24;97937.50;4787620;29;20050;-69
2022/01/13 14:29:37;;;;;;;19.23;9.73;;;;;;;-9.78;79.63;97928.44;4787401;29;20521;-69
2022/01/13 14:32:30;;;;;;;6.35;4.32;;;;;;;-9.70;80.94;97918.00;4787176;29;20129;-69
2022/01/13 14:34:56;;;;;;;12.02;6.45;;;;;;;-9.75;79.78;97896.63;4785447;29;20069;-69
2022/01/13 14:37:25;;;;;;;14.02;7.35;;;;;;;-9.57;80.59;97899.69;4755881;29;20082;-68
2022/01/13 14:40:05;;;;;;;11.38;5.00;;;;;;;-9.49;80.11;97889.22;4777341;29;20046;-70
2022/01/13 14:42:30;;;;;;;11.90;7.35;;;;;;;-9.73;79.67;97885.41;4796075;29;20062;-68
2022/01/13 14:45:22;;;;;;;10.82;5.75;;;;;;;-9.55;80.48;97858.38;4795583;29;20061;-71
2022/01/13 14:47:47;;;;;;;15.35;6.63;;;;;;;-9.44;80.67;97840.09;4773797;29;20078;-70
2022/01/13 14:50:12;;;;;;;15.10;6.85;;;;;;;-9.38;80.25;97825.38;4788060;29;20081;-69
2022/01/13 14:52:36;;;;;;;11.18;6.30;;;;;;;-9.34;80.05;97820.97;4787517;29;20074;-69
2022/01/13 14:55:02;;;;;;;13.50;6.28;;;;;;;-9.44;80.63;97804.00;4741481;29;20069;-71
2022/01/13 14:57:28;;;;;;;14.30;6.80;;;;;;;-9.23;80.12;97788.88;4771887;29;20046;-69
2022/01/13 14:59:52;;;;;;;14.18;6.93;;;;;;;-9.26;80.35;97786.41;4770991;29;20054;-68
2022/01/13 15:02:18;;;;;;;11.43;6.20;;;;;;;-9.33;80.24;97777.09;4787593;29;20129;-69
2022/01/13 15:04:43;;;;;;;11.88;7.28;;;;;;;-9.30;80.87;97781.34;4787482;29;20489;-69
2022/01/13 15:07:08;;;;;;;13.15;5.97;;;;;;;-9.29;80.05;97781.31;4771717;29;20446;-68
2022/01/13 15:09:32;;;;;;;8.25;4.70;;;;;;;-9.20;80.31;97777.66;4787691;29;20510;-67
2022/01/13 15:11:58;;;;;;;13.82;5.50;;;;;;;-9.13;80.08;97774.03;4757466;29;20050;-68
2022/01/13 15:14:23;;;;;;;15.90;7.82;;;;;;;-9.18;80.37;97793.97;4756988;29;20081;-69
2022/01/13 15:16:47;;;;;;;12.20;6.60;;;;;;;-9.16;79.88;97787.03;4772237;29;20104;-68
2022/01/13 15:19:15;;;;;;;11.40;6.07;;;;;;;-9.17;80.36;97781.03;4788089;29;20070;-69
2022/01/13 15:21:43;;;;;;;15.20;7.55;;;;;;;-9.19;79.89;97789.69;4788435;29;20050;-68
2022/01/13 15:24:08;;;;;;;19.23;7.32;;;;;;;-9.30;80.60;97782.19;4775073;29;20057;-69
2022/01/13 15:26:33;;;;;;;12.95;6.85;;;;;;;-9.20;80.11;97775.94;4791415;29;20401;-69
2022/01/13 15:28:58;;;;;;;15.00;6.85;;;;;;;-9.21;80.06;97771.66;4775092;29;20073;-69
2022/01/13 15:31:24;;;;;;;10.30;6.38;;;;;;;-9.25;80.07;97743.34;4774923;29;20121;-69
2022/01/13 15:33:49;;;;;;;13.07;7.07;;;;;;;-9.12;80.04;97744.78;4791005;29;20054;-69
2022/01/13 15:36:14;;;;;;;8.77;5.18;;;;;;;-8.94;81.00;97741.75;4791108;29;20532;-69
2022/01/13 15:38:39;;;;;;;11.40;5.78;;;;;;;-9.02;79.58;97735.06;4791315;29;20089;-69
2022/01/13 15:41:05;;;;;;;19.67;7.63;;;;;;;-9.12;79.63;97741.34;4790772;29;20078;-69
2022/01/13 15:43:32;;;;;;;14.90;7.65;;;;;;;-9.11;80.33;97735.28;4774703;29;20058;-70
2022/01/13 15:45:59;;;;;;;21.27;9.10;;;;;;;-9.12;80.43;97739.59;4790852;29;20046;-68
2022/01/13 15:48:24;;;;;;;13.77;7.18;;;;;;;-9.05;80.47;97735.16;4791425;29;20042;-69
2022/01/13 15:50:49;;;;;;;12.30;6.07;;;;;;;-8.98;80.82;97719.47;4791569;29;20137;-68
2022/01/13 15:53:14;;;;;;;20.48;7.60;;;;;;;-8.95;81.61;97727.16;4775400;29;20054;-68
2022/01/13 15:55:41;;;;;;;19.83;8.38;;;;;;;-8.96;80.67;97729.78;4774906;29;20050;-72
2022/01/13 15:58:06;;;;;;;19.25;8.25;;;;;;;-8.93;80.72;97746.03;4780138;29;20057;-71
2022/01/13 16:00:32;;;;;;;14.82;7.55;;;;;;;-8.88;81.30;97740.75;4791147;29;20042;-72
2022/01/13 16:02:57;;;;;;;10.23;5.97;;;;;;;-8.74;81.71;97746.41;4774416;29;20050;-71
2022/01/13 16:05:22;;;;;;;20.20;10.05;;;;;;;-8.92;81.01;97736.56;4772538;29;20111;-70
2022/01/13 16:07:48;;;;;;;20.95;8.13;;;;;;;-8.84;81.63;97742.38;4774088;29;20042;-72
2022/01/13 16:10:17;;;;;;;14.73;6.60;;;;;;;-8.76;81.13;97708.59;4790705;29;20050;-72
2022/01/13 16:12:45;;;;;;;12.70;6.10;;;;;;;-8.73;82.00;97701.63;4774205;29;20435;-72
2022/01/13 16:15:16;;;;;;;14.90;5.28;;;;;;;-8.67;81.49;97713.53;4790556;29;20119;-73
2022/01/13 16:17:46;;;;;;;18.38;9.05;;;;;;;-8.76;81.45;97709.47;4790687;29;20494;-69
2022/01/13 16:20:11;;;;;;;15.45;7.60;;;;;;;-8.66;81.71;97702.31;4771872;29;20434;-69
2022/01/13 16:22:37;;;;;;;16.25;8.82;;;;;;;-8.71;81.61;97696.44;4773092;29;20069;-68
2022/01/13 16:25:03;;;;;;;18.02;8.20;;;;;;;-8.61;82.50;97692.72;4773269;29;20093;-68
2022/01/13 16:27:31;;;;;;;17.05;8.43;;;;;;;-8.64;81.60;97692.78;4773063;29;20524;-68
2022/01/13 16:30:04;;;;;;;14.30;8.32;;;;;;;-8.60;82.71;97702.16;4758944;29;20054;-68
2022/01/13 16:32:34;;;;;;;17.83;8.18;;;;;;;-8.56;82.69;97703.75;4782540;29;20049;-69
2022/01/13 16:35:02;;;;;;;13.75;8.43;;;;;;;-8.38;82.92;97692.94;4781823;29;20122;-68
2022/01/13 16:37:28;;;;;;;18.70;9.57;;;;;;;-8.48;82.03;97696.69;4786182;29;20047;-69
2022/01/13 16:39:55;;;;;;;12.60;7.03;;;;;;;-8.35;82.54;97689.44;4784142;29;20058;-73
2022/01/13 16:42:23;;;;;;;21.02;8.93;;;;;;;-8.23;82.02;97689.03;4773015;29;20038;-71
2022/01/13 16:44:50;;;;;;;12.63;7.00;;;;;;;-8.17;81.64;97683.72;4749798;29;20042;-71
2022/01/13 16:50:10;;;;;;;19.80;10.43;;;;;;;-8.23;82.28;97691.63;4778271;29;20581;-72
2022/01/13 16:52:35;;;;;;;17.83;10.82;;;;;;;-8.25;82.57;97683.94;4777750;29;20046;-74
2022/01/13 16:55:02;;;;;;;14.38;7.70;;;;;;;-8.19;82.03;97681.16;4756780;29;20458;-72
2022/01/13 16:57:30;;;;;;;16.38;8.70;;;;;;;-8.15;83.11;97671.59;4791371;29;20042;-76
2022/01/13 16:59:57;;;;;;;14.52;6.55;;;;;;;-7.93;82.49;97683.00;4774182;29;20426;-73
2022/01/13 17:02:29;;;;;;;10.38;4.93;;;;;;;-7.99;82.14;97672.81;4802063;29;20152;-69
2022/01/13 17:04:56;;;;;;;22.00;10.68;;;;;;;-8.04;82.46;97650.59;4805305;29;20056;-72
2022/01/13 17:07:21;;;;;;;12.73;7.07;;;;;;;-7.90;82.95;97646.69;4805455;29;20060;-65
2022/01/13 17:09:51;;;;;;;14.00;8.13;;;;;;;-8.00;83.03;97634.94;4805657;29;20079;-65
2022/01/13 17:12:16;;;;;;;17.23;8.02;;;;;;;-7.86;83.33;97606.94;4804402;29;20386;-65
2022/01/13 17:14:42;;;;;;;19.02;9.75;;;;;;;-7.87;83.27;97632.84;4805653;29;20377;-66
2022/01/13 17:17:08;;;;;;;15.68;9.43;;;;;;;-7.84;82.86;97615.50;4806319;29;20084;-78
2022/01/13 17:19:37;;;;;;;17.73;9.02;;;;;;;-7.69;83.17;97627.09;4806711;29;20069;-72
2022/01/13 17:22:05;;;;;;;15.68;7.90;;;;;;;-7.58;83.08;97619.84;4805121;29;20050;-72
2022/01/13 17:24:30;;;;;;;19.52;8.10;;;;;;;-7.52;83.55;97623.97;4797488;29;20425;-72
2022/01/13 17:26:55;;;;;;;11.30;6.15;;;;;;;-7.41;83.42;97622.72;4788352;29;20124;-73
2022/01/13 17:29:20;;;;;;;13.77;7.90;;;;;;;-7.43;82.95;97618.50;4772024;29;20057;-66
2022/01/13 17:31:48;;;;;;;19.00;9.15;;;;;;;-7.41;83.20;97611.53;4788400;29;20039;-75
2022/01/13 17:34:14;;;;;;;19.95;10.35;;;;;;;-7.38;83.22;97596.75;4787314;29;20577;-73
2022/01/13 17:36:41;;;;;;;22.02;9.93;;;;;;;-7.40;82.69;97614.06;4786756;29;20125;-68
2022/01/13 17:39:07;;;;;;;14.30;7.57;;;;;;;-7.36;82.84;97596.72;4771992;29;20177;-74
2022/01/13 17:41:34;;;;;;;16.80;7.97;;;;;;;-7.28;82.82;97602.47;4771671;29;20053;-74
2022/01/13 17:44:01;;;;;;;17.00;8.65;;;;;;;-7.24;82.86;97605.81;4772313;29;20065;-72
2022/01/13 17:46:29;;;;;;;18.85;9.60;;;;;;;-7.25;82.81;97594.63;4771919;29;20042;-73
2022/01/13 17:48:56;;;;;;;21.67;9.07;;;;;;;-7.19;83.29;97597.00;4787360;29;20133;-74
2022/01/13 17:51:23;;;;;;;18.42;8.23;;;;;;;-7.20;82.56;97592.69;4787869;29;20046;-71
2022/01/13 17:53:49;;;;;;;22.25;11.02;;;;;;;-7.11;82.88;97561.31;4787986;29;20798;-66
2022/01/13 17:56:18;;;;;;;14.20;8.05;;;;;;;-7.03;82.81;97564.50;4787892;29;20046;-66
2022/01/13 17:58:44;;;;;;;17.25;8.27;;;;;;;-7.01;83.29;97567.91;4787565;29;20054;-68
2022/01/13 18:01:10;;;;;;;15.23;7.22;;;;;;;-6.88;83.33;97550.16;4788037;29;20054;-66
2022/01/13 18:03:36;;;;;;;15.25;7.55;;;;;;;-6.84;82.62;97543.97;4786182;29;20046;-70
2022/01/13 18:06:02;;;;;;;21.95;12.65;;;;;;;-6.96;82.72;97547.00;4787606;29;20069;-66
2022/01/13 18:08:30;;;;;;;19.90;9.40;;;;;;;-6.74;82.78;97549.66;4756339;29;20098;-71
2022/01/13 18:10:56;;;;;;;19.65;9.45;;;;;;;-6.73;83.10;97538.41;4788229;29;20054;-69
2022/01/13 18:13:22;;;;;;;17.45;9.13;;;;;;;-6.73;83.37;97539.25;4788558;29;20506;-71
2022/01/13 18:15:51;;;;;;;24.77;11.05;;;;;;;-6.69;83.19;97550.34;4771332;29;20061;-73
2022/01/13 18:18:20;;;;;;;18.38;9.15;;;;;;;-6.69;83.51;97540.84;4787780;29;20046;-72
2022/01/13 18:20:46;;;;;;;21.00;7.88;;;;;;;-6.66;83.23;97532.13;4786583;29;20510;-74
2022/01/13 18:23:12;;;;;;;21.40;10.68;;;;;;;-6.62;84.02;97525.91;4771260;29;20122;-68
2022/01/13 18:25:39;;;;;;;17.77;8.05;;;;;;;-6.47;83.08;97502.00;4787639;29;20050;-73
2022/01/13 18:28:04;;;;;;;21.02;10.82;;;;;;;-6.58;83.38;97511.94;4786229;29;20049;-70
2022/01/13 18:30:31;;;;;;;18.98;9.57;;;;;;;-6.39;83.84;97506.91;4787380;29;20042;-73
2022/01/13 18:32:58;;;;;;;23.00;9.32;;;;;;;-6.36;83.74;97510.22;4789269;29;20046;-73
2022/01/13 18:35:24;;;;;;;18.13;10.05;;;;;;;-6.48;83.43;97504.66;4805739;29;20041;-71
2022/01/13 18:37:50;;;;;;;19.50;9.35;;;;;;;-6.33;83.94;97499.75;4804356;29;20600;-73
2022/01/13 18:40:17;;;;;;;14.68;6.93;;;;;;;-6.25;83.91;97494.25;4804810;29;20191;-73
2022/01/13 18:42:49;;;;;;;17.48;9.73;;;;;;;-6.29;83.58;97503.91;4804674;29;20129;-75
2022/01/13 18:45:25;;;;;;;18.65;9.68;;;;;;;-6.30;83.99;97501.34;4805745;29;20042;-68
2022/01/13 18:48:04;;;;;;;27.00;11.57;;;;;;;-6.21;83.71;97474.25;4805373;29;20115;-65
2022/01/13 18:50:36;;;;;;;18.80;9.25;;;;;;;-6.14;84.12;97468.75;4806545;29;20053;-73